sensor_id;sensor_type;location;lat;lon;timestamp;P1;durP1;ratioP1;P2;durP2;ratioP2
29908;SDS011;36247;51.952;6.146;2024-02-14T00:01:13;8.60;;;5.30;;
29908;SDS011;36247;51.952;6.146;2024-02-14T00:03:39;7.55;;;5.03;;
29908;SDS011;36247;51.952;6.146;2024-02-14T00:06:04;8.32;;;5.30;;
29908;SDS011;36247;51.952;6.146;2024-02-14T00:08:30;10.65;;;5.40;;
29908;SDS011;36247;51.952;6.146;2024-02-14T00:10:56;8.95;;;5.85;;
29908;SDS011;36247;51.952;6.146;2024-02-14T00:13:21;11.65;;;5.80;;
29908;SDS011;36247;51.952;6.146;2024-02-14T00:15:47;5.82;;;4.88;;
29908;SDS011;36247;51.952;6.146;2024-02-14T00:18:12;7.85;;;5.30;;
29908;SDS011;36247;51.952;6.146;2024-02-14T00:20:38;5.47;;;4.97;;
29908;SDS011;36247;51.952;6.146;2024-02-14T00:23:04;7.30;;;4.60;;
29908;SDS011;36247;51.952;6.146;2024-02-14T00:25:30;8.80;;;5.00;;
29908;SDS011;36247;51.952;6.146;2024-02-14T00:27:55;8.32;;;5.28;;
29908;SDS011;36247;51.952;6.146;2024-02-14T00:30:20;8.50;;;5.32;;
29908;SDS011;36247;51.952;6.146;2024-02-14T00:32:48;6.78;;;4.50;;
29908;SDS011;36247;51.952;6.146;2024-02-14T00:35:13;6.78;;;5.20;;
29908;SDS011;36247;51.952;6.146;2024-02-14T00:37:39;10.15;;;4.95;;
29908;SDS011;36247;51.952;6.146;2024-02-14T00:40:04;8.80;;;5.25;;
29908;SDS011;36247;51.952;6.146;2024-02-14T00:42:31;8.35;;;6.03;;
29908;SDS011;36247;51.952;6.146;2024-02-14T00:44:56;8.65;;;5.03;;
29908;SDS011;36247;51.952;6.146;2024-02-14T00:47:21;6.85;;;5.63;;
29908;SDS011;36247;51.952;6.146;2024-02-14T00:49:47;6.50;;;5.68;;
29908;SDS011;36247;51.952;6.146;2024-02-14T00:52:12;7.35;;;5.55;;
29908;SDS011;36247;51.952;6.146;2024-02-14T00:54:38;5.88;;;5.20;;
29908;SDS011;36247;51.952;6.146;2024-02-14T00:57:03;7.85;;;5.50;;
29908;SDS011;36247;51.952;6.146;2024-02-14T00:59:29;7.53;;;5.60;;
29908;SDS011;36247;51.952;6.146;2024-02-14T01:01:54;6.43;;;4.80;;
29908;SDS011;36247;51.952;6.146;2024-02-14T01:04:19;5.97;;;5.05;;
29908;SDS011;36247;51.952;6.146;2024-02-14T01:06:45;6.30;;;5.65;;
29908;SDS011;36247;51.952;6.146;2024-02-14T01:09:10;5.63;;;4.47;;
29908;SDS011;36247;51.952;6.146;2024-02-14T01:11:36;8.73;;;5.03;;
29908;SDS011;36247;51.952;6.146;2024-02-14T01:14:03;6.53;;;4.97;;
29908;SDS011;36247;51.952;6.146;2024-02-14T01:16:29;7.38;;;6.07;;
29908;SDS011;36247;51.952;6.146;2024-02-14T01:18:54;9.98;;;6.00;;
29908;SDS011;36247;51.952;6.146;2024-02-14T01:21:20;11.60;;;6.57;;
29908;SDS011;36247;51.952;6.146;2024-02-14T01:23:45;10.95;;;7.10;;
29908;SDS011;36247;51.952;6.146;2024-02-14T01:26:11;7.50;;;6.10;;
29908;SDS011;36247;51.952;6.146;2024-02-14T01:28:36;12.48;;;7.10;;
29908;SDS011;36247;51.952;6.146;2024-02-14T01:31:03;9.38;;;7.07;;
29908;SDS011;36247;51.952;6.146;2024-02-14T01:33:28;10.23;;;6.80;;
29908;SDS011;36247;51.952;6.146;2024-02-14T01:35:55;10.55;;;7.32;;
29908;SDS011;36247;51.952;6.146;2024-02-14T01:38:22;9.88;;;7.78;;
29908;SDS011;36247;51.952;6.146;2024-02-14T01:40:48;12.43;;;8.57;;
29908;SDS011;36247;51.952;6.146;2024-02-14T01:43:13;8.90;;;7.40;;
29908;SDS011;36247;51.952;6.146;2024-02-14T01:45:39;8.10;;;6.88;;
29908;SDS011;36247;51.952;6.146;2024-02-14T01:48:05;7.60;;;6.78;;
29908;SDS011;36247;51.952;6.146;2024-02-14T01:50:33;8.32;;;6.93;;
29908;SDS011;36247;51.952;6.146;2024-02-14T01:53:00;9.35;;;7.95;;
29908;SDS011;36247;51.952;6.146;2024-02-14T01:55:27;9.10;;;6.72;;
29908;SDS011;36247;51.952;6.146;2024-02-14T01:57:54;9.70;;;7.07;;
29908;SDS011;36247;51.952;6.146;2024-02-14T02:00:19;8.02;;;6.43;;
29908;SDS011;36247;51.952;6.146;2024-02-14T02:02:45;9.73;;;6.53;;
29908;SDS011;36247;51.952;6.146;2024-02-14T02:05:16;9.13;;;7.65;;
29908;SDS011;36247;51.952;6.146;2024-02-14T02:07:42;8.93;;;7.70;;
29908;SDS011;36247;51.952;6.146;2024-02-14T02:10:11;10.25;;;8.50;;
29908;SDS011;36247;51.952;6.146;2024-02-14T02:12:37;13.55;;;9.57;;
29908;SDS011;36247;51.952;6.146;2024-02-14T02:15:06;8.63;;;7.45;;
29908;SDS011;36247;51.952;6.146;2024-02-14T02:17:32;9.95;;;7.00;;
29908;SDS011;36247;51.952;6.146;2024-02-14T02:20:01;11.65;;;7.32;;
29908;SDS011;36247;51.952;6.146;2024-02-14T02:22:27;10.60;;;7.00;;
29908;SDS011;36247;51.952;6.146;2024-02-14T02:24:54;11.13;;;7.28;;
29908;SDS011;36247;51.952;6.146;2024-02-14T02:27:19;11.90;;;7.38;;
29908;SDS011;36247;51.952;6.146;2024-02-14T02:29:45;11.98;;;7.70;;
29908;SDS011;36247;51.952;6.146;2024-02-14T02:32:11;9.57;;;7.25;;
29908;SDS011;36247;51.952;6.146;2024-02-14T02:34:36;10.00;;;8.02;;
29908;SDS011;36247;51.952;6.146;2024-02-14T02:37:04;11.23;;;7.88;;
29908;SDS011;36247;51.952;6.146;2024-02-14T02:39:32;8.40;;;6.55;;
29908;SDS011;36247;51.952;6.146;2024-02-14T02:41:58;9.95;;;6.72;;
29908;SDS011;36247;51.952;6.146;2024-02-14T02:44:24;14.32;;;8.15;;
29908;SDS011;36247;51.952;6.146;2024-02-14T02:46:50;8.35;;;6.55;;
29908;SDS011;36247;51.952;6.146;2024-02-14T02:49:15;11.13;;;6.13;;
29908;SDS011;36247;51.952;6.146;2024-02-14T02:51:41;10.20;;;6.60;;
29908;SDS011;36247;51.952;6.146;2024-02-14T02:54:06;12.38;;;8.57;;
29908;SDS011;36247;51.952;6.146;2024-02-14T02:56:33;11.13;;;7.47;;
29908;SDS011;36247;51.952;6.146;2024-02-14T02:58:58;14.35;;;9.07;;
29908;SDS011;36247;51.952;6.146;2024-02-14T03:01:24;9.48;;;8.55;;
29908;SDS011;36247;51.952;6.146;2024-02-14T03:03:50;9.75;;;7.57;;
29908;SDS011;36247;51.952;6.146;2024-02-14T03:06:15;10.43;;;9.07;;
29908;SDS011;36247;51.952;6.146;2024-02-14T03:08:41;13.18;;;8.43;;
29908;SDS011;36247;51.952;6.146;2024-02-14T03:11:07;11.05;;;7.82;;
29908;SDS011;36247;51.952;6.146;2024-02-14T03:13:32;12.88;;;8.80;;
29908;SDS011;36247;51.952;6.146;2024-02-14T03:15:58;14.15;;;9.38;;
29908;SDS011;36247;51.952;6.146;2024-02-14T03:18:24;9.95;;;8.70;;
29908;SDS011;36247;51.952;6.146;2024-02-14T03:20:50;12.23;;;9.75;;
29908;SDS011;36247;51.952;6.146;2024-02-14T03:23:15;16.05;;;9.82;;
29908;SDS011;36247;51.952;6.146;2024-02-14T03:25:41;16.45;;;10.57;;
29908;SDS011;36247;51.952;6.146;2024-02-14T03:28:07;16.10;;;8.70;;
29908;SDS011;36247;51.952;6.146;2024-02-14T03:30:34;15.60;;;9.95;;
29908;SDS011;36247;51.952;6.146;2024-02-14T03:33:00;11.32;;;8.48;;
29908;SDS011;36247;51.952;6.146;2024-02-14T03:35:25;13.05;;;8.20;;
29908;SDS011;36247;51.952;6.146;2024-02-14T03:37:52;12.77;;;9.05;;
29908;SDS011;36247;51.952;6.146;2024-02-14T03:40:18;11.95;;;9.75;;
29908;SDS011;36247;51.952;6.146;2024-02-14T03:42:45;10.23;;;7.95;;
29908;SDS011;36247;51.952;6.146;2024-02-14T03:45:11;15.13;;;8.60;;
29908;SDS011;36247;51.952;6.146;2024-02-14T03:47:37;10.32;;;8.80;;
29908;SDS011;36247;51.952;6.146;2024-02-14T03:50:05;12.77;;;8.50;;
29908;SDS011;36247;51.952;6.146;2024-02-14T03:52:32;14.30;;;9.43;;
29908;SDS011;36247;51.952;6.146;2024-02-14T03:54:58;11.18;;;8.98;;
29908;SDS011;36247;51.952;6.146;2024-02-14T03:57:24;11.77;;;7.68;;
29908;SDS011;36247;51.952;6.146;2024-02-14T03:59:52;12.13;;;8.80;;
29908;SDS011;36247;51.952;6.146;2024-02-14T04:02:17;14.30;;;9.45;;
29908;SDS011;36247;51.952;6.146;2024-02-14T04:04:43;14.18;;;9.82;;
29908;SDS011;36247;51.952;6.146;2024-02-14T04:07:11;16.75;;;10.48;;
29908;SDS011;36247;51.952;6.146;2024-02-14T04:09:37;15.23;;;10.15;;
29908;SDS011;36247;51.952;6.146;2024-02-14T04:12:02;12.00;;;9.40;;
29908;SDS011;36247;51.952;6.146;2024-02-14T04:14:28;12.60;;;9.13;;
29908;SDS011;36247;51.952;6.146;2024-02-14T04:16:54;12.48;;;9.05;;
29908;SDS011;36247;51.952;6.146;2024-02-14T04:19:19;13.38;;;8.65;;
29908;SDS011;36247;51.952;6.146;2024-02-14T04:21:45;13.82;;;10.13;;
29908;SDS011;36247;51.952;6.146;2024-02-14T04:24:11;10.70;;;7.78;;
29908;SDS011;36247;51.952;6.146;2024-02-14T04:26:36;14.05;;;9.43;;
29908;SDS011;36247;51.952;6.146;2024-02-14T04:29:02;17.00;;;9.77;;
29908;SDS011;36247;51.952;6.146;2024-02-14T04:31:27;19.08;;;10.57;;
29908;SDS011;36247;51.952;6.146;2024-02-14T04:33:55;12.35;;;9.13;;
29908;SDS011;36247;51.952;6.146;2024-02-14T04:36:20;14.77;;;9.52;;
29908;SDS011;36247;51.952;6.146;2024-02-14T04:38:48;17.25;;;9.60;;
29908;SDS011;36247;51.952;6.146;2024-02-14T04:41:14;15.48;;;10.80;;
29908;SDS011;36247;51.952;6.146;2024-02-14T04:43:40;15.93;;;10.55;;
29908;SDS011;36247;51.952;6.146;2024-02-14T04:46:06;14.13;;;9.63;;
29908;SDS011;36247;51.952;6.146;2024-02-14T04:48:33;17.17;;;9.85;;
29908;SDS011;36247;51.952;6.146;2024-02-14T04:50:58;17.65;;;10.50;;
29908;SDS011;36247;51.952;6.146;2024-02-14T04:53:24;15.48;;;10.43;;
29908;SDS011;36247;51.952;6.146;2024-02-14T04:55:49;21.52;;;11.00;;
29908;SDS011;36247;51.952;6.146;2024-02-14T04:58:15;15.18;;;10.98;;
29908;SDS011;36247;51.952;6.146;2024-02-14T05:00:41;14.57;;;8.90;;
29908;SDS011;36247;51.952;6.146;2024-02-14T05:03:06;17.75;;;10.57;;
29908;SDS011;36247;51.952;6.146;2024-02-14T05:05:32;16.75;;;11.43;;
29908;SDS011;36247;51.952;6.146;2024-02-14T05:07:58;15.27;;;10.43;;
29908;SDS011;36247;51.952;6.146;2024-02-14T05:10:24;21.25;;;13.43;;
29908;SDS011;36247;51.952;6.146;2024-02-14T05:12:49;19.58;;;11.75;;
29908;SDS011;36247;51.952;6.146;2024-02-14T05:15:15;18.50;;;10.73;;
29908;SDS011;36247;51.952;6.146;2024-02-14T05:17:42;16.45;;;10.73;;
29908;SDS011;36247;51.952;6.146;2024-02-14T05:20:09;20.45;;;11.13;;
29908;SDS011;36247;51.952;6.146;2024-02-14T05:22:36;17.77;;;11.25;;
29908;SDS011;36247;51.952;6.146;2024-02-14T05:25:02;17.73;;;11.05;;
29908;SDS011;36247;51.952;6.146;2024-02-14T05:27:29;16.65;;;11.00;;
29908;SDS011;36247;51.952;6.146;2024-02-14T05:29:55;16.77;;;12.13;;
29908;SDS011;36247;51.952;6.146;2024-02-14T05:32:20;17.85;;;10.65;;
29908;SDS011;36247;51.952;6.146;2024-02-14T05:34:46;19.73;;;11.63;;
29908;SDS011;36247;51.952;6.146;2024-02-14T05:37:11;20.30;;;11.68;;
29908;SDS011;36247;51.952;6.146;2024-02-14T05:39:36;20.27;;;12.98;;
29908;SDS011;36247;51.952;6.146;2024-02-14T05:42:02;17.52;;;12.60;;
29908;SDS011;36247;51.952;6.146;2024-02-14T05:44:29;19.33;;;13.18;;
29908;SDS011;36247;51.952;6.146;2024-02-14T05:46:55;20.30;;;12.13;;
29908;SDS011;36247;51.952;6.146;2024-02-14T05:49:21;19.38;;;10.95;;
29908;SDS011;36247;51.952;6.146;2024-02-14T05:51:47;14.15;;;8.95;;
29908;SDS011;36247;51.952;6.146;2024-02-14T05:54:12;19.98;;;11.52;;
29908;SDS011;36247;51.952;6.146;2024-02-14T05:56:37;16.88;;;11.50;;
29908;SDS011;36247;51.952;6.146;2024-02-14T05:59:03;19.17;;;12.02;;
29908;SDS011;36247;51.952;6.146;2024-02-14T06:01:28;22.30;;;12.77;;
29908;SDS011;36247;51.952;6.146;2024-02-14T06:03:54;20.20;;;12.25;;
29908;SDS011;36247;51.952;6.146;2024-02-14T06:06:19;15.98;;;11.13;;
29908;SDS011;36247;51.952;6.146;2024-02-14T06:08:44;17.75;;;12.07;;
29908;SDS011;36247;51.952;6.146;2024-02-14T06:11:10;22.38;;;13.07;;
29908;SDS011;36247;51.952;6.146;2024-02-14T06:13:37;15.90;;;12.60;;
29908;SDS011;36247;51.952;6.146;2024-02-14T06:16:03;15.05;;;12.80;;
29908;SDS011;36247;51.952;6.146;2024-02-14T06:18:28;21.10;;;12.20;;
29908;SDS011;36247;51.952;6.146;2024-02-14T06:20:54;20.75;;;13.68;;
29908;SDS011;36247;51.952;6.146;2024-02-14T06:23:19;20.98;;;13.07;;
29908;SDS011;36247;51.952;6.146;2024-02-14T06:25:44;22.48;;;13.27;;
29908;SDS011;36247;51.952;6.146;2024-02-14T06:28:10;19.35;;;12.98;;
29908;SDS011;36247;51.952;6.146;2024-02-14T06:30:35;15.90;;;11.45;;
29908;SDS011;36247;51.952;6.146;2024-02-14T06:33:01;17.85;;;9.80;;
29908;SDS011;36247;51.952;6.146;2024-02-14T06:35:27;16.67;;;11.40;;
29908;SDS011;36247;51.952;6.146;2024-02-14T06:37:53;20.38;;;12.80;;
29908;SDS011;36247;51.952;6.146;2024-02-14T06:40:19;18.92;;;13.02;;
29908;SDS011;36247;51.952;6.146;2024-02-14T06:42:45;21.30;;;12.95;;
29908;SDS011;36247;51.952;6.146;2024-02-14T06:45:10;17.30;;;12.80;;
29908;SDS011;36247;51.952;6.146;2024-02-14T06:47:36;20.38;;;12.45;;
29908;SDS011;36247;51.952;6.146;2024-02-14T06:50:01;16.10;;;11.70;;
29908;SDS011;36247;51.952;6.146;2024-02-14T06:52:27;19.77;;;13.10;;
29908;SDS011;36247;51.952;6.146;2024-02-14T06:54:52;17.73;;;12.75;;
29908;SDS011;36247;51.952;6.146;2024-02-14T06:57:17;17.80;;;12.82;;
29908;SDS011;36247;51.952;6.146;2024-02-14T06:59:43;15.52;;;11.77;;
29908;SDS011;36247;51.952;6.146;2024-02-14T07:02:08;17.40;;;13.13;;
29908;SDS011;36247;51.952;6.146;2024-02-14T07:04:34;17.17;;;13.45;;
29908;SDS011;36247;51.952;6.146;2024-02-14T07:06:59;16.40;;;12.18;;
29908;SDS011;36247;51.952;6.146;2024-02-14T07:09:25;18.20;;;13.38;;
29908;SDS011;36247;51.952;6.146;2024-02-14T07:11:51;16.73;;;12.73;;
29908;SDS011;36247;51.952;6.146;2024-02-14T07:14:21;23.40;;;15.13;;
29908;SDS011;36247;51.952;6.146;2024-02-14T07:16:47;18.90;;;14.18;;
29908;SDS011;36247;51.952;6.146;2024-02-14T07:19:12;19.30;;;13.73;;
29908;SDS011;36247;51.952;6.146;2024-02-14T07:21:38;20.65;;;15.77;;
29908;SDS011;36247;51.952;6.146;2024-02-14T07:24:04;24.10;;;15.63;;
29908;SDS011;36247;51.952;6.146;2024-02-14T07:26:30;19.73;;;15.10;;
29908;SDS011;36247;51.952;6.146;2024-02-14T07:28:55;21.83;;;15.45;;
29908;SDS011;36247;51.952;6.146;2024-02-14T07:31:21;29.10;;;16.67;;
29908;SDS011;36247;51.952;6.146;2024-02-14T07:33:46;21.42;;;16.25;;
29908;SDS011;36247;51.952;6.146;2024-02-14T07:36:13;24.05;;;16.52;;
29908;SDS011;36247;51.952;6.146;2024-02-14T07:38:39;22.52;;;17.15;;
29908;SDS011;36247;51.952;6.146;2024-02-14T07:41:04;26.17;;;17.75;;
29908;SDS011;36247;51.952;6.146;2024-02-14T07:43:30;26.05;;;17.42;;
29908;SDS011;36247;51.952;6.146;2024-02-14T07:45:55;24.63;;;16.38;;
29908;SDS011;36247;51.952;6.146;2024-02-14T07:48:21;25.98;;;16.67;;
29908;SDS011;36247;51.952;6.146;2024-02-14T07:50:47;28.58;;;17.88;;
29908;SDS011;36247;51.952;6.146;2024-02-14T07:53:13;24.65;;;17.45;;
29908;SDS011;36247;51.952;6.146;2024-02-14T07:55:38;28.38;;;16.92;;
29908;SDS011;36247;51.952;6.146;2024-02-14T07:58:05;28.55;;;18.30;;
29908;SDS011;36247;51.952;6.146;2024-02-14T08:00:30;26.55;;;17.75;;
29908;SDS011;36247;51.952;6.146;2024-02-14T08:02:55;26.08;;;18.15;;
29908;SDS011;36247;51.952;6.146;2024-02-14T08:05:21;28.33;;;17.73;;
29908;SDS011;36247;51.952;6.146;2024-02-14T08:07:46;26.08;;;17.88;;
29908;SDS011;36247;51.952;6.146;2024-02-14T08:10:12;30.83;;;18.50;;
29908;SDS011;36247;51.952;6.146;2024-02-14T08:12:38;25.38;;;18.27;;
29908;SDS011;36247;51.952;6.146;2024-02-14T08:15:03;25.58;;;17.15;;
29908;SDS011;36247;51.952;6.146;2024-02-14T08:17:31;25.02;;;16.40;;
29908;SDS011;36247;51.952;6.146;2024-02-14T08:19:56;28.90;;;18.98;;
29908;SDS011;36247;51.952;6.146;2024-02-14T08:22:22;28.02;;;19.55;;
29908;SDS011;36247;51.952;6.146;2024-02-14T08:24:47;30.75;;;20.75;;
29908;SDS011;36247;51.952;6.146;2024-02-14T08:27:13;28.33;;;19.85;;
29908;SDS011;36247;51.952;6.146;2024-02-14T08:29:38;31.73;;;17.85;;
29908;SDS011;36247;51.952;6.146;2024-02-14T08:32:04;30.23;;;18.92;;
29908;SDS011;36247;51.952;6.146;2024-02-14T08:34:30;23.20;;;17.35;;
29908;SDS011;36247;51.952;6.146;2024-02-14T08:36:55;24.52;;;16.98;;
29908;SDS011;36247;51.952;6.146;2024-02-14T08:39:20;24.88;;;15.60;;
29908;SDS011;36247;51.952;6.146;2024-02-14T08:41:46;22.23;;;15.90;;
29908;SDS011;36247;51.952;6.146;2024-02-14T08:44:12;24.85;;;14.57;;
29908;SDS011;36247;51.952;6.146;2024-02-14T08:46:38;28.20;;;16.88;;
29908;SDS011;36247;51.952;6.146;2024-02-14T08:49:04;21.50;;;14.43;;
29908;SDS011;36247;51.952;6.146;2024-02-14T08:51:36;26.58;;;14.95;;
29908;SDS011;36247;51.952;6.146;2024-02-14T08:54:03;25.20;;;16.05;;
29908;SDS011;36247;51.952;6.146;2024-02-14T08:56:34;21.15;;;15.18;;
29908;SDS011;36247;51.952;6.146;2024-02-14T08:59:02;20.23;;;14.77;;
29908;SDS011;36247;51.952;6.146;2024-02-14T09:01:32;25.23;;;15.25;;
29908;SDS011;36247;51.952;6.146;2024-02-14T09:03:58;22.83;;;14.90;;
29908;SDS011;36247;51.952;6.146;2024-02-14T09:06:24;19.80;;;15.10;;
29908;SDS011;36247;51.952;6.146;2024-02-14T09:08:51;22.20;;;15.55;;
29908;SDS011;36247;51.952;6.146;2024-02-14T09:11:17;27.52;;;15.90;;
29908;SDS011;36247;51.952;6.146;2024-02-14T09:13:43;21.85;;;15.50;;
29908;SDS011;36247;51.952;6.146;2024-02-14T09:16:09;25.95;;;15.32;;
29908;SDS011;36247;51.952;6.146;2024-02-14T09:18:35;25.85;;;15.63;;
29908;SDS011;36247;51.952;6.146;2024-02-14T09:21:01;21.00;;;15.38;;
29908;SDS011;36247;51.952;6.146;2024-02-14T09:23:30;20.30;;;14.60;;
29908;SDS011;36247;51.952;6.146;2024-02-14T09:25:56;21.25;;;15.30;;
29908;SDS011;36247;51.952;6.146;2024-02-14T09:28:22;21.08;;;14.95;;
29908;SDS011;36247;51.952;6.146;2024-02-14T09:30:48;25.08;;;15.93;;
29908;SDS011;36247;51.952;6.146;2024-02-14T09:33:13;24.50;;;14.60;;
29908;SDS011;36247;51.952;6.146;2024-02-14T09:35:39;22.35;;;13.98;;
29908;SDS011;36247;51.952;6.146;2024-02-14T09:38:09;22.13;;;14.85;;
29908;SDS011;36247;51.952;6.146;2024-02-14T09:40:37;23.05;;;15.45;;
29908;SDS011;36247;51.952;6.146;2024-02-14T09:43:04;25.02;;;15.95;;
29908;SDS011;36247;51.952;6.146;2024-02-14T09:45:34;22.10;;;15.30;;
29908;SDS011;36247;51.952;6.146;2024-02-14T09:48:01;17.38;;;14.57;;
29908;SDS011;36247;51.952;6.146;2024-02-14T09:50:28;21.33;;;16.08;;
29908;SDS011;36247;51.952;6.146;2024-02-14T09:52:56;26.27;;;16.00;;
29908;SDS011;36247;51.952;6.146;2024-02-14T09:55:22;21.35;;;14.75;;
29908;SDS011;36247;51.952;6.146;2024-02-14T09:57:48;23.73;;;16.70;;
29908;SDS011;36247;51.952;6.146;2024-02-14T10:00:14;24.17;;;16.50;;
29908;SDS011;36247;51.952;6.146;2024-02-14T10:02:40;26.05;;;17.98;;
29908;SDS011;36247;51.952;6.146;2024-02-14T10:05:06;22.50;;;16.95;;
29908;SDS011;36247;51.952;6.146;2024-02-14T10:07:42;25.55;;;17.10;;
29908;SDS011;36247;51.952;6.146;2024-02-14T10:10:08;23.02;;;17.02;;
29908;SDS011;36247;51.952;6.146;2024-02-14T10:12:35;27.58;;;17.60;;
29908;SDS011;36247;51.952;6.146;2024-02-14T10:15:01;23.80;;;18.75;;
29908;SDS011;36247;51.952;6.146;2024-02-14T10:17:27;27.02;;;17.30;;
29908;SDS011;36247;51.952;6.146;2024-02-14T10:19:59;29.92;;;18.83;;
29908;SDS011;36247;51.952;6.146;2024-02-14T10:22:31;32.65;;;18.80;;
29908;SDS011;36247;51.952;6.146;2024-02-14T10:24:59;29.73;;;18.40;;
29908;SDS011;36247;51.952;6.146;2024-02-14T10:27:25;27.98;;;19.00;;
29908;SDS011;36247;51.952;6.146;2024-02-14T10:29:50;30.75;;;19.25;;
29908;SDS011;36247;51.952;6.146;2024-02-14T10:32:16;32.50;;;18.83;;
29908;SDS011;36247;51.952;6.146;2024-02-14T10:34:42;29.17;;;18.60;;
29908;SDS011;36247;51.952;6.146;2024-02-14T10:37:10;30.33;;;19.13;;
29908;SDS011;36247;51.952;6.146;2024-02-14T10:39:39;30.85;;;17.48;;
29908;SDS011;36247;51.952;6.146;2024-02-14T10:42:06;26.92;;;18.80;;
29908;SDS011;36247;51.952;6.146;2024-02-14T10:44:32;27.92;;;18.83;;
29908;SDS011;36247;51.952;6.146;2024-02-14T10:46:58;27.70;;;18.80;;
29908;SDS011;36247;51.952;6.146;2024-02-14T10:49:28;25.88;;;17.35;;
29908;SDS011;36247;51.952;6.146;2024-02-14T10:51:56;27.42;;;17.65;;
29908;SDS011;36247;51.952;6.146;2024-02-14T10:54:25;31.33;;;17.92;;
29908;SDS011;36247;51.952;6.146;2024-02-14T10:56:51;29.10;;;17.67;;
29908;SDS011;36247;51.952;6.146;2024-02-14T10:59:21;26.73;;;17.52;;
29908;SDS011;36247;51.952;6.146;2024-02-14T11:01:50;24.38;;;17.02;;
29908;SDS011;36247;51.952;6.146;2024-02-14T11:04:16;28.20;;;16.90;;
29908;SDS011;36247;51.952;6.146;2024-02-14T11:06:52;29.15;;;16.50;;
29908;SDS011;36247;51.952;6.146;2024-02-14T11:09:31;23.90;;;16.05;;
29908;SDS011;36247;51.952;6.146;2024-02-14T11:12:00;26.25;;;16.23;;
29908;SDS011;36247;51.952;6.146;2024-02-14T11:14:29;31.38;;;17.48;;
29908;SDS011;36247;51.952;6.146;2024-02-14T11:16:56;23.20;;;14.95;;
29908;SDS011;36247;51.952;6.146;2024-02-14T11:19:29;24.60;;;14.75;;
29908;SDS011;36247;51.952;6.146;2024-02-14T11:21:58;21.73;;;13.90;;
29908;SDS011;36247;51.952;6.146;2024-02-14T11:24:27;28.08;;;15.02;;
29908;SDS011;36247;51.952;6.146;2024-02-14T11:26:56;23.10;;;15.40;;
29908;SDS011;36247;51.952;6.146;2024-02-14T11:29:28;21.60;;;13.95;;
29908;SDS011;36247;51.952;6.146;2024-02-14T11:32:00;21.20;;;15.43;;
29908;SDS011;36247;51.952;6.146;2024-02-14T11:34:27;19.13;;;14.43;;
29908;SDS011;36247;51.952;6.146;2024-02-14T11:36:53;21.27;;;15.30;;
29908;SDS011;36247;51.952;6.146;2024-02-14T11:39:20;20.80;;;14.57;;
29908;SDS011;36247;51.952;6.146;2024-02-14T11:41:45;26.42;;;14.15;;
29908;SDS011;36247;51.952;6.146;2024-02-14T11:44:11;20.27;;;14.30;;
29908;SDS011;36247;51.952;6.146;2024-02-14T11:46:37;20.92;;;15.32;;
29908;SDS011;36247;51.952;6.146;2024-02-14T11:49:03;21.52;;;13.65;;
29908;SDS011;36247;51.952;6.146;2024-02-14T11:51:31;25.00;;;15.60;;
29908;SDS011;36247;51.952;6.146;2024-02-14T11:53:58;21.65;;;15.07;;
29908;SDS011;36247;51.952;6.146;2024-02-14T11:56:30;21.05;;;15.77;;
29908;SDS011;36247;51.952;6.146;2024-02-14T11:58:59;25.98;;;16.55;;
29908;SDS011;36247;51.952;6.146;2024-02-14T12:01:28;23.40;;;15.93;;
29908;SDS011;36247;51.952;6.146;2024-02-14T12:03:56;23.77;;;16.15;;
29908;SDS011;36247;51.952;6.146;2024-02-14T12:06:23;21.33;;;17.23;;
29908;SDS011;36247;51.952;6.146;2024-02-14T12:08:48;20.98;;;17.05;;
29908;SDS011;36247;51.952;6.146;2024-02-14T12:11:14;23.73;;;15.90;;
29908;SDS011;36247;51.952;6.146;2024-02-14T12:13:40;24.48;;;17.30;;
29908;SDS011;36247;51.952;6.146;2024-02-14T12:16:08;19.10;;;16.67;;
29908;SDS011;36247;51.952;6.146;2024-02-14T12:18:35;21.88;;;16.42;;
29908;SDS011;36247;51.952;6.146;2024-02-14T12:21:04;23.17;;;17.00;;
29908;SDS011;36247;51.952;6.146;2024-02-14T12:23:32;23.42;;;16.25;;
29908;SDS011;36247;51.952;6.146;2024-02-14T12:26:01;21.20;;;16.52;;
29908;SDS011;36247;51.952;6.146;2024-02-14T12:28:28;17.83;;;14.63;;
29908;SDS011;36247;51.952;6.146;2024-02-14T12:30:56;22.85;;;14.95;;
29908;SDS011;36247;51.952;6.146;2024-02-14T12:33:22;20.13;;;13.30;;
29908;SDS011;36247;51.952;6.146;2024-02-14T12:35:49;15.82;;;12.80;;
29908;SDS011;36247;51.952;6.146;2024-02-14T12:38:17;19.63;;;13.98;;
29908;SDS011;36247;51.952;6.146;2024-02-14T12:40:43;18.17;;;13.55;;
29908;SDS011;36247;51.952;6.146;2024-02-14T12:43:10;18.40;;;13.52;;
29908;SDS011;36247;51.952;6.146;2024-02-14T12:45:36;19.08;;;14.80;;
29908;SDS011;36247;51.952;6.146;2024-02-14T12:48:03;15.63;;;13.13;;
29908;SDS011;36247;51.952;6.146;2024-02-14T12:50:30;18.38;;;12.50;;
29908;SDS011;36247;51.952;6.146;2024-02-14T12:52:58;17.55;;;11.93;;
29908;SDS011;36247;51.952;6.146;2024-02-14T12:55:24;14.52;;;11.63;;
29908;SDS011;36247;51.952;6.146;2024-02-14T12:57:51;14.02;;;10.95;;
29908;SDS011;36247;51.952;6.146;2024-02-14T13:00:17;14.35;;;9.93;;
29908;SDS011;36247;51.952;6.146;2024-02-14T13:02:42;11.27;;;10.07;;
29908;SDS011;36247;51.952;6.146;2024-02-14T13:05:08;15.75;;;10.35;;
29908;SDS011;36247;51.952;6.146;2024-02-14T13:07:34;11.23;;;9.55;;
29908;SDS011;36247;51.952;6.146;2024-02-14T13:10:00;10.10;;;8.80;;
29908;SDS011;36247;51.952;6.146;2024-02-14T13:12:25;11.70;;;8.27;;
29908;SDS011;36247;51.952;6.146;2024-02-14T13:14:51;12.65;;;9.80;;
29908;SDS011;36247;51.952;6.146;2024-02-14T13:17:16;12.60;;;8.73;;
29908;SDS011;36247;51.952;6.146;2024-02-14T13:19:42;11.90;;;8.85;;
29908;SDS011;36247;51.952;6.146;2024-02-14T13:22:08;16.58;;;9.98;;
29908;SDS011;36247;51.952;6.146;2024-02-14T13:24:33;12.13;;;10.65;;
29908;SDS011;36247;51.952;6.146;2024-02-14T13:26:59;11.57;;;10.38;;
29908;SDS011;36247;51.952;6.146;2024-02-14T13:29:24;15.00;;;10.43;;
29908;SDS011;36247;51.952;6.146;2024-02-14T13:31:53;15.48;;;9.85;;
29908;SDS011;36247;51.952;6.146;2024-02-14T13:34:18;10.98;;;9.88;;
29908;SDS011;36247;51.952;6.146;2024-02-14T13:36:45;13.00;;;10.20;;
29908;SDS011;36247;51.952;6.146;2024-02-14T13:39:11;11.93;;;9.85;;
29908;SDS011;36247;51.952;6.146;2024-02-14T13:41:37;14.05;;;11.18;;
29908;SDS011;36247;51.952;6.146;2024-02-14T13:44:04;13.63;;;10.77;;
29908;SDS011;36247;51.952;6.146;2024-02-14T13:46:31;11.15;;;9.95;;
29908;SDS011;36247;51.952;6.146;2024-02-14T13:48:57;11.75;;;9.65;;
29908;SDS011;36247;51.952;6.146;2024-02-14T13:51:23;13.88;;;10.35;;
29908;SDS011;36247;51.952;6.146;2024-02-14T13:53:48;11.75;;;10.50;;
29908;SDS011;36247;51.952;6.146;2024-02-14T13:56:14;13.07;;;10.82;;
29908;SDS011;36247;51.952;6.146;2024-02-14T13:58:41;12.13;;;10.18;;
29908;SDS011;36247;51.952;6.146;2024-02-14T14:01:06;11.57;;;10.10;;
29908;SDS011;36247;51.952;6.146;2024-02-14T14:03:32;12.55;;;11.02;;
29908;SDS011;36247;51.952;6.146;2024-02-14T14:06:01;14.70;;;12.05;;
29908;SDS011;36247;51.952;6.146;2024-02-14T14:08:28;13.55;;;11.50;;
29908;SDS011;36247;51.952;6.146;2024-02-14T14:10:53;14.07;;;11.57;;
29908;SDS011;36247;51.952;6.146;2024-02-14T14:13:19;15.80;;;13.73;;
29908;SDS011;36247;51.952;6.146;2024-02-14T14:15:44;15.20;;;12.55;;
29908;SDS011;36247;51.952;6.146;2024-02-14T14:18:10;15.57;;;13.35;;
29908;SDS011;36247;51.952;6.146;2024-02-14T14:20:36;16.98;;;14.50;;
29908;SDS011;36247;51.952;6.146;2024-02-14T14:23:01;20.10;;;13.95;;